createdAt,value
2022-09-29T00:00:27.281Z,98811.66
2022-09-29T00:02:54.559Z,98814.13
2022-09-29T00:05:21.666Z,98805.94
2022-09-29T00:07:48.792Z,98809.84
2022-09-29T00:10:15.789Z,98830.75
2022-09-29T00:12:42.672Z,98830.25
2022-09-29T00:15:09.942Z,98829.69
2022-09-29T00:17:36.901Z,98827.19
2022-09-29T00:20:04.747Z,98824.09
2022-09-29T00:22:31.564Z,98815.59
2022-09-29T00:24:58.367Z,98818.72
2022-09-29T00:27:25.826Z,98824.72
2022-09-29T00:29:52.754Z,98816.94
2022-09-29T00:32:19.679Z,98824.72
2022-09-29T00:34:46.480Z,98832.56
2022-09-29T00:37:14.325Z,98838.50
2022-09-29T00:39:41.229Z,98825.59
2022-09-29T00:42:12.424Z,98837.22
2022-09-29T00:45:00.720Z,98837.88
2022-09-29T00:47:29.016Z,98830.81
2022-09-29T00:50:07.122Z,98833.50
2022-09-29T00:52:39.997Z,98817.31
2022-09-29T00:55:37.512Z,98823.97
2022-09-29T00:58:19.021Z,98816.47
2022-09-29T01:00:46.085Z,98823.31
2022-09-29T01:03:20.251Z,98823.97
2022-09-29T01:05:56.273Z,98834.78
2022-09-29T01:09:09.723Z,98829.38
2022-09-29T01:11:36.941Z,98820.19
2022-09-29T01:14:07.255Z,98813.81
2022-09-29T01:16:35.835Z,98820.03
2022-09-29T01:19:07.314Z,98818.63
2022-09-29T01:22:03.844Z,98822.28
2022-09-29T01:24:57.311Z,98826.00
2022-09-29T01:27:39.160Z,98824.78
2022-09-29T01:30:18.827Z,98815.75
2022-09-29T01:33:00.581Z,98817.59
2022-09-29T01:35:48.696Z,98811.88
2022-09-29T01:38:34.265Z,98816.41
2022-09-29T01:41:10.981Z,98795.53
2022-09-29T01:43:50.752Z,98818.06
2022-09-29T01:46:38.165Z,98825.91
2022-09-29T01:49:06.706Z,98825.22
2022-09-29T01:51:52.379Z,98841.69
2022-09-29T01:54:25.595Z,98836.59
2022-09-29T01:56:59.613Z,98828.06
2022-09-29T01:59:37.283Z,98827.84
2022-09-29T02:02:10.643Z,98812.91
2022-09-29T02:05:01.722Z,98814.16
2022-09-29T02:07:43.558Z,98817.81
2022-09-29T02:10:33.532Z,98808.13
2022-09-29T02:13:02.755Z,98809.56
2022-09-29T02:15:34.841Z,98815.72
2022-09-29T02:18:07.789Z,98810.00
2022-09-29T02:20:34.691Z,98810.31
2022-09-29T02:23:01.609Z,98810.97
2022-09-29T02:25:29.061Z,98790.31
2022-09-29T02:27:56.022Z,98803.34
2022-09-29T02:30:22.973Z,98817.22
2022-09-29T02:32:49.869Z,98808.34
2022-09-29T02:35:17.034Z,98815.03
2022-09-29T02:38:06.009Z,98805.34
2022-09-29T02:41:00.885Z,98829.56
2022-09-29T02:43:47.034Z,98823.59
2022-09-29T02:46:28.964Z,98823.03
2022-09-29T02:49:05.475Z,98824.19
2022-09-29T02:52:02.350Z,98820.75
2022-09-29T02:54:32.044Z,98812.44
2022-09-29T02:57:20.366Z,98818.66
2022-09-29T02:59:57.485Z,98814.50
2022-09-29T03:02:26.208Z,98811.00
2022-09-29T03:04:54.105Z,98815.44
2022-09-29T03:07:21.414Z,98818.31
2022-09-29T03:09:48.308Z,98812.44
2022-09-29T03:12:15.244Z,98820.16
2022-09-29T03:14:42.045Z,98814.34
2022-09-29T03:17:08.920Z,98820.53
2022-09-29T03:19:35.824Z,98821.41
2022-09-29T03:22:03.796Z,98819.19
2022-09-29T03:24:31.748Z,98821.88
2022-09-29T03:26:58.536Z,98823.66
2022-09-29T03:29:25.480Z,98804.72
2022-09-29T03:31:52.342Z,98838.03
2022-09-29T03:34:19.224Z,98830.19
2022-09-29T03:36:46.050Z,98841.31
2022-09-29T03:39:12.971Z,98850.13
2022-09-29T03:41:39.769Z,98836.13
2022-09-29T03:44:06.642Z,98846.78
2022-09-29T03:46:33.509Z,98842.78
2022-09-29T03:49:00.291Z,98844.63
2022-09-29T03:51:27.134Z,98852.47
2022-09-29T03:53:54.688Z,98846.47
2022-09-29T03:56:21.598Z,98839.22
2022-09-29T03:58:50.157Z,98848.34
2022-09-29T04:01:17.231Z,98858.00
2022-09-29T04:03:44.144Z,98853.50
2022-09-29T04:06:11.020Z,98855.16
2022-09-29T04:08:38.048Z,98861.31
2022-09-29T04:11:05.904Z,98864.47
2022-09-29T04:13:33.769Z,98863.34
2022-09-29T04:16:02.475Z,98876.34
2022-09-29T04:18:29.866Z,98879.16
2022-09-29T04:21:00.942Z,98885.66
2022-09-29T04:23:30.533Z,98876.16
2022-09-29T04:25:58.273Z,98883.16
2022-09-29T04:28:25.982Z,98883.31
2022-09-29T04:30:52.800Z,98883.97
2022-09-29T04:33:19.694Z,98886.00
2022-09-29T04:35:47.048Z,98889.66
2022-09-29T04:38:13.861Z,98864.50
2022-09-29T04:40:40.864Z,98882.13
2022-09-29T04:43:07.753Z,98867.16
2022-09-29T04:45:34.744Z,98866.50
2022-09-29T04:48:01.907Z,98872.34
2022-09-29T04:50:29.242Z,98869.84
2022-09-29T04:52:56.493Z,98876.34
2022-09-29T04:55:23.432Z,98850.78
2022-09-29T04:57:50.510Z,98874.38
2022-09-29T05:00:17.835Z,98876.84
2022-09-29T05:02:49.462Z,98872.25
2022-09-29T05:05:16.618Z,98868.16
2022-09-29T05:07:44.623Z,98874.19
2022-09-29T05:10:11.490Z,98862.00
2022-09-29T05:12:38.303Z,98868.16
2022-09-29T05:15:06.404Z,98864.53
2022-09-29T05:17:33.706Z,98864.59
2022-09-29T05:20:00.570Z,98866.44
2022-09-29T05:22:27.436Z,98861.00
2022-09-29T05:24:54.317Z,98865.84
2022-09-29T05:27:22.513Z,98866.38
2022-09-29T05:29:49.516Z,98884.19
2022-09-29T05:32:16.616Z,98881.03
2022-09-29T05:34:43.638Z,98885.03
2022-09-29T05:37:10.619Z,98886.41
2022-09-29T05:39:37.806Z,98891.69
2022-09-29T05:42:06.645Z,98892.84
2022-09-29T05:44:33.920Z,98893.56
2022-09-29T05:47:00.904Z,98896.00
2022-09-29T05:49:27.819Z,98893.88
2022-09-29T05:51:54.617Z,98906.66
2022-09-29T05:54:21.632Z,98904.03
2022-09-29T05:56:48.448Z,98901.91
2022-09-29T05:59:15.551Z,98908.56
2022-09-29T06:01:43.165Z,98895.75
2022-09-29T06:04:10.330Z,98887.78
2022-09-29T06:06:37.125Z,98882.84
2022-09-29T06:09:03.930Z,98874.31
2022-09-29T06:11:33.708Z,98865.53
2022-09-29T06:14:03.362Z,98870.59
2022-09-29T06:16:32.253Z,98883.09
2022-09-29T06:19:01.016Z,98897.25
2022-09-29T06:21:30.141Z,98903.75
2022-09-29T06:23:58.241Z,98896.16
2022-09-29T06:26:27.071Z,98894.03
2022-09-29T06:28:54.864Z,98900.34
2022-09-29T06:31:24.270Z,98896.44
2022-09-29T06:33:51.856Z,98893.00
2022-09-29T06:36:39.104Z,98904.97
2022-09-29T06:39:07.488Z,98901.94
2022-09-29T06:41:35.392Z,98908.91
2022-09-29T06:44:02.805Z,98915.44
2022-09-29T06:46:30.695Z,98910.47
2022-09-29T06:48:57.855Z,98900.19
2022-09-29T06:51:37.411Z,98903.50
2022-09-29T06:54:11.933Z,98909.78
2022-09-29T06:56:39.535Z,98905.19
2022-09-29T06:59:07.319Z,98904.59
2022-09-29T07:01:34.763Z,98906.22
2022-09-29T07:04:02.546Z,98905.97
2022-09-29T07:06:30.561Z,98910.72
2022-09-29T07:08:59.213Z,98906.69
2022-09-29T07:11:26.697Z,98905.38
2022-09-29T07:13:55.157Z,98903.25
2022-09-29T07:16:25.484Z,98904.94
2022-09-29T07:18:52.916Z,98907.22
2022-09-29T07:21:22.124Z,98911.81
2022-09-29T07:23:49.932Z,98915.13
2022-09-29T07:26:17.819Z,98907.88
2022-09-29T07:28:46.904Z,98905.41
2022-09-29T07:31:19.780Z,98909.75
2022-09-29T07:33:49.157Z,98901.63
2022-09-29T07:36:18.578Z,98912.84
2022-09-29T07:38:47.321Z,98917.91
2022-09-29T07:41:14.600Z,98908.75
2022-09-29T07:43:41.816Z,98917.31
2022-09-29T07:46:09.615Z,98909.47
2022-09-29T07:48:37.222Z,98917.25
2022-09-29T07:51:19.526Z,98913.63
2022-09-29T07:53:47.263Z,98916.13
2022-09-29T07:56:19.323Z,98921.94
2022-09-29T07:58:47.815Z,98907.81
2022-09-29T08:01:16.329Z,98912.31
2022-09-29T08:03:47.303Z,98917.69
2022-09-29T08:06:15.208Z,98914.63
2022-09-29T08:08:51.760Z,98918.88
2022-09-29T08:11:30.975Z,98909.19
2022-09-29T08:13:59.045Z,98912.50
2022-09-29T08:16:26.154Z,98913.41
2022-09-29T08:18:53.122Z,98902.78
2022-09-29T08:21:20.084Z,98921.97
2022-09-29T08:23:46.946Z,98925.84
2022-09-29T08:26:23.391Z,98928.13
2022-09-29T08:29:05.957Z,98914.94
2022-09-29T08:31:34.345Z,98922.75
2022-09-29T08:34:01.287Z,98920.91
2022-09-29T08:36:28.311Z,98921.78
2022-09-29T08:38:57.099Z,98923.97
2022-09-29T08:41:42.154Z,98927.72
2022-09-29T08:44:26.230Z,98932.41
2022-09-29T08:47:08.685Z,98930.53
2022-09-29T08:49:57.369Z,98927.91
2022-09-29T08:52:47.278Z,98945.72
2022-09-29T08:55:21.185Z,98943.69
2022-09-29T08:57:54.002Z,98945.31
2022-09-29T09:00:25.900Z,98941.25
2022-09-29T09:03:22.194Z,98938.47
2022-09-29T09:05:54.945Z,98942.00
2022-09-29T09:08:46.566Z,98928.59
2022-09-29T09:11:41.346Z,98933.50
2022-09-29T09:14:37.229Z,98926.72
2022-09-29T09:17:39.462Z,98936.53
2022-09-29T09:20:32.778Z,98943.78
2022-09-29T09:23:04.079Z,98937.34
2022-09-29T09:25:36.624Z,98937.56
2022-09-29T09:28:14.221Z,98935.13
2022-09-29T09:30:50.948Z,98933.75
2022-09-29T09:33:31.473Z,98935.13
2022-09-29T09:36:04.830Z,98929.78
2022-09-29T09:38:46.500Z,98929.19
2022-09-29T09:41:18.639Z,98917.56
2022-09-29T09:44:18.168Z,98920.69
2022-09-29T09:46:45.032Z,98929.03
2022-09-29T09:49:17.520Z,98922.31
2022-09-29T09:52:03.796Z,98911.00
2022-09-29T09:54:35.005Z,98911.81
2022-09-29T09:57:20.277Z,98916.31
2022-09-29T10:00:11.397Z,98908.47
2022-09-29T10:02:52.394Z,98914.78
2022-09-29T10:05:21.449Z,98909.13
2022-09-29T10:07:51.045Z,98912.34
2022-09-29T10:10:23.788Z,98908.28
2022-09-29T10:13:09.602Z,98905.94
2022-09-29T10:16:15.122Z,98910.63
2022-09-29T10:18:45.377Z,98912.28
2022-09-29T10:21:38.688Z,98907.13
2022-09-29T10:24:18.406Z,98903.50
2022-09-29T10:26:47.987Z,98894.13
2022-09-29T10:29:26.367Z,98893.72
2022-09-29T10:32:19.726Z,98882.69
2022-09-29T10:34:51.957Z,98884.91
2022-09-29T10:37:35.650Z,98870.66
2022-09-29T10:40:08.333Z,98863.25
2022-09-29T10:42:36.982Z,98856.09
2022-09-29T10:45:26.555Z,98856.91
2022-09-29T10:47:59.578Z,98860.97
2022-09-29T10:50:33.480Z,98849.31
2022-09-29T10:53:08.904Z,98850.66
2022-09-29T10:55:49.444Z,98846.47
2022-09-29T10:58:45.220Z,98829.72
2022-09-29T11:01:17.324Z,98839.00
2022-09-29T11:04:01.755Z,98827.28
2022-09-29T11:06:31.616Z,98821.94
2022-09-29T11:09:07.843Z,98826.22
2022-09-29T11:11:37.336Z,98828.31
2022-09-29T11:14:04.228Z,98827.56
2022-09-29T11:16:37.493Z,98822.09
2022-09-29T11:19:08.985Z,98821.00
2022-09-29T11:22:09.695Z,98825.69
2022-09-29T11:24:47.981Z,98809.94
2022-09-29T11:27:39.042Z,98819.91
2022-09-29T11:30:22.502Z,98811.75
2022-09-29T11:33:14.027Z,98812.31
2022-09-29T11:36:04.156Z,98813.34
2022-09-29T11:38:49.649Z,98819.47
2022-09-29T11:41:29.430Z,98810.41
2022-09-29T11:44:21.118Z,98808.34
2022-09-29T11:47:00.009Z,98807.66
2022-09-29T11:49:32.763Z,98804.09
2022-09-29T11:52:17.948Z,98805.88
2022-09-29T11:55:03.243Z,98804.72
2022-09-29T11:57:57.039Z,98808.81
2022-09-29T12:00:38.651Z,98807.06
2022-09-29T12:03:26.826Z,98803.53
2022-09-29T12:05:53.641Z,98801.13
2022-09-29T12:08:44.187Z,98789.66
2022-09-29T12:11:54.806Z,98796.38
2022-09-29T12:14:45.775Z,98789.78
2022-09-29T12:17:18.987Z,98782.25
2022-09-29T12:19:51.558Z,98786.75
2022-09-29T12:22:20.080Z,98790.16
2022-09-29T12:24:50.573Z,98791.84
2022-09-29T12:27:24.739Z,98793.25
2022-09-29T12:30:20.541Z,98787.38
2022-09-29T12:32:57.579Z,98786.13
2022-09-29T12:35:32.769Z,98774.19
2022-09-29T12:38:37.181Z,98786.16
2022-09-29T12:41:21.387Z,98788.59
2022-09-29T12:43:56.018Z,98788.09
2022-09-29T12:46:31.859Z,98782.97
2022-09-29T12:49:23.452Z,98783.19
2022-09-29T12:51:53.132Z,98787.91
2022-09-29T12:54:55.548Z,98785.81
2022-09-29T12:57:31.250Z,98789.47
2022-09-29T13:00:09.587Z,98794.00
2022-09-29T13:03:35.054Z,98789.66
2022-09-29T13:06:17.365Z,98794.16
2022-09-29T13:09:03.122Z,98791.41
2022-09-29T13:11:35.867Z,98791.19
2022-09-29T13:14:21.532Z,98790.84
2022-09-29T13:16:56.714Z,98794.66
2022-09-29T13:19:58.534Z,98784.91
2022-09-29T13:22:41.200Z,98788.59
2022-09-29T13:25:28.511Z,98784.06
2022-09-29T13:27:57.420Z,98787.91
2022-09-29T13:30:31.412Z,98786.03
2022-09-29T13:33:22.744Z,98789.44
2022-09-29T13:35:51.261Z,98788.38
2022-09-29T13:38:28.945Z,98790.63
2022-09-29T13:41:17.111Z,98785.66
2022-09-29T13:43:52.602Z,98788.25
2022-09-29T13:46:31.406Z,98789.09
2022-09-29T13:49:10.084Z,98785.13
2022-09-29T13:51:43.012Z,98785.16
2022-09-29T13:54:21.999Z,98786.53
2022-09-29T13:56:58.936Z,98790.28
2022-09-29T13:59:27.107Z,98800.34
2022-09-29T14:01:54.575Z,98780.06
2022-09-29T14:04:49.265Z,98797.22
2022-09-29T14:07:46.437Z,98787.84
2022-09-29T14:10:28.194Z,98786.44
2022-09-29T14:13:19.345Z,98788.47
2022-09-29T14:16:25.450Z,98780.00
2022-09-29T14:19:21.232Z,98780.78
2022-09-29T14:21:57.533Z,98785.13
2022-09-29T14:24:55.863Z,98788.63
2022-09-29T14:27:31.836Z,98774.66
2022-09-29T14:30:15.751Z,98790.81
2022-09-29T14:32:47.931Z,98789.91
2022-09-29T14:35:28.335Z,98789.72
2022-09-29T14:38:36.467Z,98799.53
2022-09-29T14:41:17.163Z,98794.22
2022-09-29T14:44:01.287Z,98792.09
2022-09-29T14:47:01.508Z,98793.72
2022-09-29T14:49:59.185Z,98796.19
2022-09-29T14:52:34.080Z,98798.22
2022-09-29T14:55:20.455Z,98783.78
2022-09-29T14:58:12.187Z,98785.69
2022-09-29T15:01:10.518Z,98793.22
2022-09-29T15:03:44.356Z,98790.00
2022-09-29T15:06:17.998Z,98800.06
2022-09-29T15:09:00.349Z,98788.88
2022-09-29T15:11:28.896Z,98795.44
2022-09-29T15:13:57.484Z,98791.00
2022-09-29T15:16:48.510Z,98796.00
2022-09-29T15:19:29.973Z,98791.00
2022-09-29T15:22:14.604Z,98801.69
2022-09-29T15:24:59.080Z,98804.41
2022-09-29T15:27:26.016Z,98796.06
2022-09-29T15:29:57.673Z,98791.31
2022-09-29T15:32:28.167Z,98799.75
2022-09-29T15:35:03.679Z,98798.72
2022-09-29T15:37:55.680Z,98796.69
2022-09-29T15:40:25.250Z,98800.63
2022-09-29T15:42:58.728Z,98801.22
2022-09-29T15:45:28.506Z,98799.09
2022-09-29T15:48:06.223Z,98795.53
2022-09-29T15:50:36.156Z,98800.19
2022-09-29T15:53:03.812Z,98810.13
2022-09-29T15:55:31.933Z,98806.91
2022-09-29T15:58:00.067Z,98806.03
2022-09-29T16:00:26.961Z,98814.78
2022-09-29T16:03:11.707Z,98814.50
2022-09-29T16:05:45.323Z,98815.94
2022-09-29T16:08:25.359Z,98813.13
2022-09-29T16:11:05.002Z,98825.88
2022-09-29T16:13:35.547Z,98824.47
2022-09-29T16:16:09.554Z,98821.50
2022-09-29T16:18:36.618Z,98838.91
2022-09-29T16:21:10.250Z,98820.41
2022-09-29T16:23:37.230Z,98839.84
2022-09-29T16:26:06.700Z,98846.13
2022-09-29T16:28:38.806Z,98852.56
2022-09-29T16:31:18.188Z,98858.22
2022-09-29T16:33:47.264Z,98855.06
2022-09-29T16:36:20.288Z,98869.22
2022-09-29T16:38:50.391Z,98866.16
2022-09-29T16:41:35.775Z,98865.81
2022-09-29T16:44:19.705Z,98870.50
2022-09-29T16:46:54.418Z,98879.50
2022-09-29T16:49:28.434Z,98882.13
2022-09-29T16:51:59.485Z,98888.75
2022-09-29T16:54:33.117Z,98887.91
2022-09-29T16:57:34.335Z,98892.34
2022-09-29T17:00:07.082Z,98902.47
2022-09-29T17:02:33.989Z,98894.91
2022-09-29T17:05:04.339Z,98900.50
2022-09-29T17:07:31.823Z,98912.59
2022-09-29T17:10:00.197Z,98912.00
2022-09-29T17:12:29.433Z,98912.66
2022-09-29T17:14:57.274Z,98917.00
2022-09-29T17:17:26.372Z,98919.78
2022-09-29T17:19:56.609Z,98933.00
2022-09-29T17:22:31.439Z,98922.69
2022-09-29T17:24:59.136Z,98923.53
2022-09-29T17:27:45.439Z,98920.91
2022-09-29T17:30:17.866Z,98906.47
2022-09-29T17:32:46.942Z,98925.09
2022-09-29T17:35:15.766Z,98930.13
2022-09-29T17:37:50.132Z,98932.75
2022-09-29T17:40:22.215Z,98947.16
2022-09-29T17:42:49.093Z,98949.50
2022-09-29T17:45:17.555Z,98942.53
2022-09-29T17:47:46.095Z,98959.72
2022-09-29T17:50:36.516Z,98945.59
2022-09-29T17:53:04.447Z,98949.34
2022-09-29T17:55:32.796Z,98965.66
2022-09-29T17:58:01.045Z,98971.31
2022-09-29T18:00:33.183Z,98966.97
2022-09-29T18:03:00.016Z,98966.56
2022-09-29T18:05:28.832Z,98979.22
2022-09-29T18:07:57.328Z,98985.06
2022-09-29T18:10:28.976Z,98985.13
2022-09-29T18:12:56.383Z,98988.44
2022-09-29T18:15:24.653Z,98991.66
2022-09-29T18:17:56.212Z,98991.91
2022-09-29T18:20:23.950Z,98997.88
2022-09-29T18:22:51.153Z,99011.31
2022-09-29T18:25:19.707Z,99014.06
2022-09-29T18:27:47.963Z,99007.84
2022-09-29T18:30:20.756Z,99017.47
2022-09-29T18:32:49.701Z,99012.84
2022-09-29T18:35:26.348Z,99021.06
2022-09-29T18:37:53.199Z,99015.50
2022-09-29T18:40:23.689Z,99025.38
2022-09-29T18:42:52.555Z,99017.06
2022-09-29T18:45:24.883Z,99024.81
2022-09-29T18:47:58.781Z,99036.63
2022-09-29T18:50:32.029Z,99041.09
2022-09-29T18:52:59.932Z,99044.47
2022-09-29T18:55:28.429Z,99042.44
2022-09-29T18:57:57.406Z,99042.25
2022-09-29T19:00:39.293Z,99039.31
2022-09-29T19:03:06.263Z,99047.66
2022-09-29T19:05:34.638Z,99042.16
2022-09-29T19:08:05.605Z,99043.59
2022-09-29T19:10:34.534Z,99027.25
2022-09-29T19:13:04.544Z,99045.75
2022-09-29T19:15:35.508Z,99050.91
2022-09-29T19:18:04.364Z,99046.97
2022-09-29T19:20:31.781Z,99046.22
2022-09-29T19:23:02.767Z,99044.84
2022-09-29T19:25:33.760Z,99034.75
2022-09-29T19:28:04.988Z,99046.69
2022-09-29T19:30:38.468Z,99050.44
2022-09-29T19:33:07.383Z,99044.22
2022-09-29T19:35:35.468Z,99046.56
2022-09-29T19:38:02.774Z,99050.06
2022-09-29T19:40:34.438Z,99048.19
2022-09-29T19:43:05.863Z,99057.34
2022-09-29T19:45:37.866Z,99059.88
2022-09-29T19:48:10.936Z,99054.09
2022-09-29T19:50:56.268Z,99057.44
2022-09-29T19:53:23.072Z,99060.56
2022-09-29T19:55:52.358Z,99063.22
2022-09-29T19:58:19.597Z,99070.88
2022-09-29T20:00:46.737Z,99071.50
2022-09-29T20:03:13.620Z,99063.63
2022-09-29T20:05:41.319Z,99069.41
2022-09-29T20:08:08.245Z,99073.78
2022-09-29T20:10:36.381Z,99083.31
2022-09-29T20:13:03.517Z,99087.22
2022-09-29T20:15:30.492Z,99098.59
2022-09-29T20:17:57.475Z,99100.03
2022-09-29T20:20:24.391Z,99100.22
2022-09-29T20:22:53.511Z,99103.97
2022-09-29T20:25:21.215Z,99100.25
2022-09-29T20:27:49.962Z,99109.94
2022-09-29T20:30:17.220Z,99108.22
2022-09-29T20:32:44.033Z,99119.81
2022-09-29T20:35:10.816Z,99124.19
2022-09-29T20:37:38.741Z,99122.31
2022-09-29T20:40:06.052Z,99129.63
2022-09-29T20:42:34.230Z,99129.84
2022-09-29T20:45:01.188Z,99134.78
2022-09-29T20:47:28.064Z,99129.19
2022-09-29T20:49:56.551Z,99128.53
2022-09-29T20:52:24.837Z,99135.78
2022-09-29T20:54:53.119Z,99125.41
2022-09-29T20:57:20.526Z,99125.41
2022-09-29T20:59:47.909Z,99131.72
2022-09-29T21:02:15.971Z,99141.31
2022-09-29T21:04:43.248Z,99141.44
2022-09-29T21:07:30.450Z,99149.81
2022-09-29T21:09:58.321Z,99154.19
2022-09-29T21:12:25.532Z,99164.25
2022-09-29T21:14:52.658Z,99157.38
2022-09-29T21:17:19.591Z,99159.84
2022-09-29T21:19:46.533Z,99166.91
2022-09-29T21:22:13.410Z,99165.41
2022-09-29T21:24:44.196Z,99162.34
2022-09-29T21:27:11.472Z,99172.38
2022-09-29T21:29:38.306Z,99161.63
2022-09-29T21:32:05.534Z,99171.91
2022-09-29T21:34:32.422Z,99186.53
2022-09-29T21:36:59.302Z,99195.97
2022-09-29T21:39:26.160Z,99188.53
2022-09-29T21:41:53.131Z,99192.38
2022-09-29T21:44:24.146Z,99194.63
2022-09-29T21:46:51.363Z,99192.31
2022-09-29T21:49:19.569Z,99196.63
2022-09-29T21:51:50.946Z,99203.78
2022-09-29T21:54:25.554Z,99198.50
2022-09-29T21:56:53.992Z,99192.94
2022-09-29T21:59:22.797Z,99199.91
2022-09-29T22:01:52.252Z,99208.34
2022-09-29T22:04:20.639Z,99196.03
2022-09-29T22:06:47.701Z,99198.88
2022-09-29T22:09:19.607Z,99197.09
2022-09-29T22:11:50.154Z,99197.53
2022-09-29T22:14:18.050Z,99189.03
2022-09-29T22:16:45.135Z,99196.25
2022-09-29T22:19:23.007Z,99188.56
2022-09-29T22:21:50.106Z,99188.50
2022-09-29T22:24:17.187Z,99187.88
2022-09-29T22:26:43.969Z,99194.03
2022-09-29T22:29:10.765Z,99191.41
2022-09-29T22:31:40.507Z,99192.41
2022-09-29T22:34:08.552Z,99202.41
2022-09-29T22:36:36.064Z,99205.72
2022-09-29T22:39:05.150Z,99211.59
2022-09-29T22:41:33.325Z,99210.13
2022-09-29T22:44:00.916Z,99217.22
2022-09-29T22:46:29.862Z,99216.31
2022-09-29T22:48:57.877Z,99203.81
2022-09-29T22:51:24.821Z,99212.66
2022-09-29T22:53:52.033Z,99213.72
2022-09-29T22:56:28.826Z,99217.03
2022-09-29T22:59:01.062Z,99216.75
2022-09-29T23:01:27.920Z,99217.47
2022-09-29T23:03:54.965Z,99207.59
2022-09-29T23:06:21.881Z,99215.75
2022-09-29T23:08:49.189Z,99211.75
2022-09-29T23:11:18.146Z,99209.25
2022-09-29T23:13:45.782Z,99221.03
2022-09-29T23:16:14.387Z,99215.53
2022-09-29T23:18:44.788Z,99222.03
2022-09-29T23:21:14.239Z,99221.38
2022-09-29T23:23:41.113Z,99206.59
2022-09-29T23:26:08.257Z,99226.47
2022-09-29T23:28:35.122Z,99237.66
2022-09-29T23:31:08.642Z,99240.81
2022-09-29T23:33:36.010Z,99248.94
2022-09-29T23:36:21.370Z,99257.03
2022-09-29T23:39:06.793Z,99254.28
2022-09-29T23:41:34.263Z,99259.72
2022-09-29T23:44:05.525Z,99274.03
2022-09-29T23:46:37.799Z,99278.03
2022-09-29T23:49:14.615Z,99274.41
2022-09-29T23:51:44.221Z,99269.72
2022-09-29T23:54:13.349Z,99269.28
2022-09-29T23:56:40.485Z,99268.94
2022-09-29T23:59:07.815Z,99267.44
